< < Back
Terminal Aerodrome Forecast


Current Version              Previous Versions:   1  2  3  4  5  6  7  8  9  

Terminal Aerodrome Forecast

514
FTUS42 KCHS 232100 AAB
TAFCHS
TAF AMD
KCHS 232106Z 2321/2418 13014KT 4SM -RA BR OVC007
     FM232300 15013KT 6SM BR VCSH SCT008 BKN015
     FM240400 20012KT 5SM BR OVC007
     FM240600 21010KT 3SM BR OVC004
     FM241430 22012KT 6SM BR OVC006=



Latest METAR

877
SAUS80 KWBC 232200
MTRCHS
METAR KCHS 232156Z 11008KT 5SM -RA BR OVC007 19/18 A2987 RMK AO2 SLP114
P0005 T01940183 $


USA.gov is the U.S. government's official web portal to all federal, state and local government web resources and services.